createdAt,value
2022-07-30T00:04:48.619Z,100.00
2022-07-30T00:09:50.134Z,100.00
2022-07-30T00:14:51.772Z,100.00
2022-07-30T00:19:53.302Z,100.00
2022-07-30T00:24:56.401Z,100.00
2022-07-30T00:29:58.166Z,100.00
2022-07-30T00:34:59.719Z,100.00
2022-07-30T00:40:01.370Z,100.00
2022-07-30T00:45:05.171Z,100.00
2022-07-30T00:50:10.125Z,100.00
2022-07-30T00:55:14.361Z,100.00
2022-07-30T01:00:17.049Z,100.00
2022-07-30T01:05:18.749Z,100.00
2022-07-30T01:10:20.323Z,100.00
2022-07-30T01:15:21.899Z,100.00
2022-07-30T01:20:28.544Z,100.00
2022-07-30T01:25:51.126Z,100.00
2022-07-30T01:30:55.858Z,100.00
2022-07-30T01:35:59.148Z,100.00
2022-07-30T01:41:02.022Z,100.00
2022-07-30T01:46:05.238Z,100.00
2022-07-30T01:51:08.252Z,100.00
2022-07-30T01:56:16.816Z,100.00
2022-07-30T02:01:18.767Z,100.00
2022-07-30T02:06:23.288Z,100.00
2022-07-30T02:11:44.137Z,100.00
2022-07-30T02:16:50.966Z,100.00
2022-07-30T02:22:02.221Z,100.00
2022-07-30T02:27:08.878Z,100.00
2022-07-30T02:32:14.786Z,100.00
2022-07-30T02:37:43.057Z,100.00
2022-07-30T02:42:46.913Z,100.00
2022-07-30T02:47:56.219Z,100.00
2022-07-30T02:53:00.515Z,100.00
2022-07-30T02:58:05.560Z,100.00
2022-07-30T03:03:08.289Z,100.00
2022-07-30T03:08:10.208Z,100.00
2022-07-30T03:13:13.412Z,100.00
2022-07-30T03:18:17.016Z,100.00
2022-07-30T03:23:19.701Z,100.00
2022-07-30T03:28:23.555Z,100.00
2022-07-30T03:33:38.751Z,100.00
2022-07-30T03:38:42.577Z,100.00
2022-07-30T03:43:45.353Z,100.00
2022-07-30T03:48:47.572Z,100.00
2022-07-30T03:53:51.571Z,100.00
2022-07-30T03:58:53.399Z,100.00
2022-07-30T04:03:55.076Z,100.00
2022-07-30T04:08:56.711Z,100.00
2022-07-30T04:13:58.286Z,100.00
2022-07-30T04:19:01.287Z,100.00
2022-07-30T04:24:05.566Z,100.00
2022-07-30T04:29:13.850Z,100.00
2022-07-30T04:34:19.835Z,100.00
2022-07-30T04:39:21.381Z,100.00
2022-07-30T04:44:22.949Z,100.00
2022-07-30T04:49:24.686Z,100.00
2022-07-30T04:54:28.323Z,100.00
2022-07-30T04:59:29.974Z,100.00
2022-07-30T05:04:34.054Z,100.00
2022-07-30T05:09:36.497Z,100.00
2022-07-30T05:14:38.014Z,100.00
2022-07-30T05:19:39.540Z,100.00
2022-07-30T05:24:41.079Z,100.00
2022-07-30T05:29:42.567Z,100.00
2022-07-30T05:34:45.125Z,100.00
2022-07-30T05:40:02.411Z,100.00
2022-07-30T05:45:05.466Z,100.00
2022-07-30T05:50:07.276Z,100.00
2022-07-30T05:55:09.898Z,100.00
2022-07-30T06:00:12.774Z,100.00
2022-07-30T06:05:14.379Z,100.00
2022-07-30T06:10:15.926Z,100.00
2022-07-30T06:15:21.714Z,100.00
2022-07-30T06:20:28.353Z,100.00
2022-07-30T06:25:29.976Z,100.00
2022-07-30T06:30:31.664Z,100.00
2022-07-30T06:35:34.269Z,100.00
2022-07-30T06:40:35.879Z,100.00
2022-07-30T06:45:37.406Z,100.00
2022-07-30T06:50:38.996Z,100.00
2022-07-30T06:55:40.520Z,100.00
2022-07-30T07:00:44.772Z,97.24
2022-07-30T07:05:46.338Z,95.18
2022-07-30T07:10:48.206Z,93.51
2022-07-30T07:15:50.031Z,92.62
2022-07-30T07:20:51.621Z,91.04
2022-07-30T07:25:53.145Z,89.53
2022-07-30T07:30:55.068Z,89.68
2022-07-30T07:35:56.699Z,88.43
2022-07-30T07:40:58.318Z,88.14
2022-07-30T07:46:00.008Z,85.32
2022-07-30T07:51:01.635Z,84.91
2022-07-30T07:56:03.354Z,82.58
2022-07-30T08:01:05.909Z,80.62
2022-07-30T08:06:10.810Z,81.44
2022-07-30T08:11:14.763Z,80.50
2022-07-30T08:16:16.328Z,79.75
2022-07-30T08:21:17.958Z,79.17
2022-07-30T08:26:19.498Z,77.03
2022-07-30T08:31:21.021Z,76.01
2022-07-30T08:36:25.771Z,75.87
2022-07-30T08:41:28.667Z,75.60
2022-07-30T08:46:32.519Z,73.92
2022-07-30T08:51:35.426Z,74.13
2022-07-30T08:56:37.249Z,73.21
2022-07-30T09:01:38.838Z,71.32
2022-07-30T09:06:40.947Z,69.55
2022-07-30T09:11:44.397Z,68.81
2022-07-30T09:16:46.321Z,69.00
2022-07-30T09:21:58.531Z,67.84
2022-07-30T09:27:03.117Z,65.89
2022-07-30T09:32:09.634Z,65.98
2022-07-30T09:37:12.613Z,63.73
2022-07-30T09:42:32.622Z,62.12
2022-07-30T09:47:36.556Z,61.56
2022-07-30T09:52:44.028Z,60.84
2022-07-30T09:58:01.652Z,59.23
2022-07-30T10:03:21.846Z,58.71
2022-07-30T10:08:46.867Z,56.63
2022-07-30T10:13:53.775Z,55.12
2022-07-30T10:18:57.483Z,47.92
2022-07-30T10:23:59.634Z,40.93
2022-07-30T10:29:02.676Z,37.22
2022-07-30T10:34:04.693Z,35.34
2022-07-30T10:39:09.214Z,33.23
2022-07-30T10:44:17.694Z,31.66
2022-07-30T10:49:19.736Z,30.97
2022-07-30T10:54:33.197Z,30.30
2022-07-30T11:00:09.631Z,33.40
2022-07-30T11:05:37.444Z,38.30
2022-07-30T11:10:44.056Z,41.18
2022-07-30T11:15:58.377Z,41.54
2022-07-30T11:21:22.569Z,42.34
2022-07-30T11:26:40.982Z,42.78
2022-07-30T11:31:56.884Z,43.64
2022-07-30T11:37:19.226Z,44.60
2022-07-30T11:42:29.688Z,44.81
2022-07-30T11:47:31.700Z,44.89
2022-07-30T11:52:34.186Z,45.53
2022-07-30T11:57:42.983Z,45.28
2022-07-30T12:02:45.568Z,46.12
2022-07-30T12:07:47.166Z,46.12
2022-07-30T12:12:48.756Z,49.68
2022-07-30T12:18:00.782Z,51.73
2022-07-30T12:23:13.682Z,48.59
2022-07-30T12:28:26.736Z,47.98
2022-07-30T12:33:28.623Z,48.93
2022-07-30T12:38:42.700Z,50.20
2022-07-30T12:43:50.359Z,48.70
2022-07-30T12:49:10.310Z,47.71
2022-07-30T12:54:26.766Z,47.73
2022-07-30T12:59:29.328Z,47.87
2022-07-30T13:04:31.892Z,48.73
2022-07-30T13:09:34.169Z,49.05
2022-07-30T13:14:35.717Z,49.33
2022-07-30T13:19:37.729Z,49.58
2022-07-30T13:24:39.382Z,49.42
2022-07-30T13:29:40.914Z,49.90
2022-07-30T13:34:42.653Z,50.28
2022-07-30T13:39:44.591Z,50.22
2022-07-30T13:44:46.160Z,51.13
2022-07-30T13:49:49.708Z,51.95
2022-07-30T13:54:52.575Z,53.66
2022-07-30T13:59:54.116Z,57.30
2022-07-30T14:04:55.632Z,59.35
2022-07-30T14:09:57.193Z,60.40
2022-07-30T14:14:58.699Z,61.68
2022-07-30T14:20:00.221Z,61.10
2022-07-30T14:25:01.759Z,58.84
2022-07-30T14:30:05.201Z,58.47
2022-07-30T14:35:14.129Z,56.97
2022-07-30T14:40:15.791Z,56.68
2022-07-30T14:45:17.345Z,56.16
2022-07-30T14:50:22.045Z,55.46
2022-07-30T14:55:23.858Z,54.34
2022-07-30T15:00:25.441Z,54.36
2022-07-30T15:05:27.014Z,53.99
2022-07-30T15:10:28.593Z,53.11
2022-07-30T15:15:35.733Z,52.05
2022-07-30T15:20:40.088Z,52.56
2022-07-30T15:25:42.404Z,52.26
2022-07-30T15:30:43.962Z,52.67
2022-07-30T15:35:45.459Z,53.08
2022-07-30T15:40:46.979Z,53.37
2022-07-30T15:45:51.091Z,52.82
2022-07-30T15:51:03.341Z,52.74
2022-07-30T15:56:07.215Z,52.48
2022-07-30T16:01:08.900Z,52.82
2022-07-30T16:06:10.487Z,52.51
2022-07-30T16:11:12.011Z,51.95
2022-07-30T16:16:13.590Z,52.37
2022-07-30T16:21:15.118Z,52.24
2022-07-30T16:26:16.690Z,52.94
2022-07-30T16:31:18.310Z,53.52
2022-07-30T16:36:19.998Z,53.69
2022-07-30T16:41:21.533Z,52.98
2022-07-30T16:46:25.437Z,53.56
2022-07-30T16:51:27.030Z,54.19
2022-07-30T16:56:28.944Z,54.38
2022-07-30T17:01:32.181Z,53.94
2022-07-30T17:06:34.073Z,53.91
2022-07-30T17:11:46.440Z,54.20
2022-07-30T17:16:50.164Z,53.96
2022-07-30T17:21:53.912Z,52.89
2022-07-30T17:26:55.498Z,52.88
2022-07-30T17:31:57.029Z,53.39
2022-07-30T17:37:04.985Z,52.76
2022-07-30T17:42:08.777Z,53.33
2022-07-30T17:47:14.565Z,53.69
2022-07-30T17:52:17.849Z,53.65
2022-07-30T17:57:20.685Z,54.11
2022-07-30T18:02:27.458Z,54.55
2022-07-30T18:07:30.342Z,54.63
2022-07-30T18:12:31.953Z,55.20
2022-07-30T18:17:36.281Z,55.33
2022-07-30T18:22:37.799Z,55.63
2022-07-30T18:27:42.198Z,56.18
2022-07-30T18:32:44.969Z,56.10
2022-07-30T18:37:46.889Z,56.99
2022-07-30T18:42:49.598Z,57.62
2022-07-30T18:47:51.951Z,58.61
2022-07-30T18:52:54.219Z,58.91
2022-07-30T18:57:55.841Z,59.84
2022-07-30T19:02:57.404Z,60.63
2022-07-30T19:07:59.173Z,61.43
2022-07-30T19:13:01.391Z,61.53
2022-07-30T19:18:03.210Z,61.46
2022-07-30T19:23:06.383Z,61.63
2022-07-30T19:28:07.929Z,61.51
2022-07-30T19:33:15.222Z,60.96
2022-07-30T19:38:22.192Z,60.30
2022-07-30T19:43:25.672Z,60.62
2022-07-30T19:48:31.626Z,61.75
2022-07-30T19:53:34.654Z,63.11
2022-07-30T19:58:36.727Z,64.98
2022-07-30T20:03:39.079Z,66.38
2022-07-30T20:08:41.238Z,67.25
2022-07-30T20:13:46.541Z,68.60
2022-07-30T20:18:48.133Z,69.56
2022-07-30T20:23:52.538Z,69.67
2022-07-30T20:28:54.188Z,69.86
2022-07-30T20:33:56.910Z,69.93
2022-07-30T20:38:58.625Z,70.47
2022-07-30T20:44:02.536Z,70.98
2022-07-30T20:49:04.891Z,70.96
2022-07-30T20:54:08.524Z,71.62
2022-07-30T20:59:10.136Z,72.69
2022-07-30T21:04:11.744Z,73.00
2022-07-30T21:09:49.936Z,72.98
2022-07-30T21:14:52.904Z,73.04
2022-07-30T21:19:54.413Z,72.76
2022-07-30T21:24:57.174Z,73.32
2022-07-30T21:29:58.721Z,72.91
2022-07-30T21:35:08.482Z,73.25
2022-07-30T21:40:10.671Z,73.28
2022-07-30T21:45:12.212Z,72.96
2022-07-30T21:50:14.146Z,73.35
2022-07-30T21:55:17.825Z,74.24
2022-07-30T22:00:22.376Z,74.33
2022-07-30T22:05:38.589Z,73.77
2022-07-30T22:10:42.579Z,73.47
2022-07-30T22:15:44.252Z,73.99
2022-07-30T22:20:45.821Z,73.93
2022-07-30T22:25:48.079Z,74.36
2022-07-30T22:30:51.561Z,74.54
2022-07-30T22:35:53.114Z,74.73
2022-07-30T22:40:54.981Z,75.47
2022-07-30T22:45:58.693Z,75.72
2022-07-30T22:51:00.293Z,75.69
2022-07-30T22:56:03.288Z,75.59
2022-07-30T23:01:05.574Z,76.12
2022-07-30T23:06:07.321Z,76.46
2022-07-30T23:11:16.822Z,76.63
2022-07-30T23:16:22.822Z,76.63
2022-07-30T23:21:24.739Z,76.81
2022-07-30T23:26:26.469Z,76.60
2022-07-30T23:31:28.142Z,76.26
2022-07-30T23:36:29.668Z,76.83
2022-07-30T23:41:31.277Z,77.41
2022-07-30T23:46:32.984Z,77.59
2022-07-30T23:51:34.544Z,77.64
2022-07-30T23:56:36.604Z,78.08
